sensor_id;sensor_type;location;lat;lon;timestamp;P1;durP1;ratioP1;P2;durP2;ratioP2
80653;SDS011;70020;45.524;10.240;2023-07-20T00:00:30;12.02;;;6.75;;
80653;SDS011;70020;45.524;10.240;2023-07-20T00:03:14;13.93;;;6.50;;
80653;SDS011;70020;45.524;10.240;2023-07-20T00:05:44;11.23;;;6.68;;
80653;SDS011;70020;45.524;10.240;2023-07-20T00:08:12;14.77;;;7.38;;
80653;SDS011;70020;45.524;10.240;2023-07-20T00:10:40;12.63;;;6.32;;
80653;SDS011;70020;45.524;10.240;2023-07-20T00:13:06;13.73;;;6.07;;
80653;SDS011;70020;45.524;10.240;2023-07-20T00:15:32;16.13;;;7.28;;
80653;SDS011;70020;45.524;10.240;2023-07-20T00:17:58;21.70;;;8.82;;
80653;SDS011;70020;45.524;10.240;2023-07-20T00:20:24;13.70;;;7.47;;
80653;SDS011;70020;45.524;10.240;2023-07-20T00:22:50;12.10;;;6.28;;
80653;SDS011;70020;45.524;10.240;2023-07-20T00:25:16;14.05;;;6.72;;
80653;SDS011;70020;45.524;10.240;2023-07-20T00:27:42;11.63;;;5.55;;
80653;SDS011;70020;45.524;10.240;2023-07-20T00:30:07;10.73;;;5.80;;
80653;SDS011;70020;45.524;10.240;2023-07-20T00:32:33;10.73;;;6.22;;
80653;SDS011;70020;45.524;10.240;2023-07-20T00:34:59;12.43;;;5.95;;
80653;SDS011;70020;45.524;10.240;2023-07-20T00:37:25;12.13;;;5.85;;
80653;SDS011;70020;45.524;10.240;2023-07-20T00:39:50;10.32;;;6.18;;
80653;SDS011;70020;45.524;10.240;2023-07-20T00:42:16;13.77;;;6.35;;
80653;SDS011;70020;45.524;10.240;2023-07-20T00:44:42;11.82;;;7.32;;
80653;SDS011;70020;45.524;10.240;2023-07-20T00:47:08;12.93;;;6.43;;
80653;SDS011;70020;45.524;10.240;2023-07-20T00:49:34;11.40;;;6.00;;
80653;SDS011;70020;45.524;10.240;2023-07-20T00:52:00;10.50;;;6.15;;
80653;SDS011;70020;45.524;10.240;2023-07-20T00:54:27;12.73;;;6.00;;
80653;SDS011;70020;45.524;10.240;2023-07-20T00:56:53;8.75;;;5.57;;
80653;SDS011;70020;45.524;10.240;2023-07-20T00:59:20;10.48;;;5.63;;
80653;SDS011;70020;45.524;10.240;2023-07-20T01:01:47;8.00;;;5.90;;
80653;SDS011;70020;45.524;10.240;2023-07-20T01:04:13;10.73;;;5.65;;
80653;SDS011;70020;45.524;10.240;2023-07-20T01:11:51;11.95;;;6.80;;
80653;SDS011;70020;45.524;10.240;2023-07-20T01:14:25;11.85;;;6.50;;
80653;SDS011;70020;45.524;10.240;2023-07-20T01:16:51;11.60;;;6.72;;
80653;SDS011;70020;45.524;10.240;2023-07-20T01:19:20;11.60;;;7.43;;
80653;SDS011;70020;45.524;10.240;2023-07-20T01:32:46;11.77;;;6.47;;
80653;SDS011;70020;45.524;10.240;2023-07-20T01:35:13;11.93;;;7.45;;
80653;SDS011;70020;45.524;10.240;2023-07-20T01:37:42;10.48;;;6.57;;
80653;SDS011;70020;45.524;10.240;2023-07-20T01:40:10;9.73;;;6.63;;
80653;SDS011;70020;45.524;10.240;2023-07-20T01:42:36;9.48;;;6.43;;
80653;SDS011;70020;45.524;10.240;2023-07-20T01:45:02;10.55;;;5.90;;
80653;SDS011;70020;45.524;10.240;2023-07-20T01:47:29;11.07;;;6.38;;
80653;SDS011;70020;45.524;10.240;2023-07-20T01:49:55;10.65;;;5.60;;
80653;SDS011;70020;45.524;10.240;2023-07-20T01:52:22;10.18;;;6.03;;
80653;SDS011;70020;45.524;10.240;2023-07-20T01:54:47;7.85;;;5.55;;
80653;SDS011;70020;45.524;10.240;2023-07-20T01:57:14;9.15;;;5.90;;
80653;SDS011;70020;45.524;10.240;2023-07-20T01:59:39;10.63;;;6.85;;
80653;SDS011;70020;45.524;10.240;2023-07-20T02:02:06;10.70;;;5.70;;
80653;SDS011;70020;45.524;10.240;2023-07-20T02:04:32;8.40;;;5.00;;
80653;SDS011;70020;45.524;10.240;2023-07-20T02:06:58;11.45;;;5.32;;
80653;SDS011;70020;45.524;10.240;2023-07-20T02:09:24;8.88;;;5.13;;
80653;SDS011;70020;45.524;10.240;2023-07-20T02:11:50;8.13;;;5.00;;
80653;SDS011;70020;45.524;10.240;2023-07-20T02:14:15;12.18;;;4.80;;
80653;SDS011;70020;45.524;10.240;2023-07-20T02:16:40;7.80;;;4.80;;
80653;SDS011;70020;45.524;10.240;2023-07-20T02:19:06;9.43;;;5.55;;
80653;SDS011;70020;45.524;10.240;2023-07-20T02:21:32;10.70;;;6.20;;
80653;SDS011;70020;45.524;10.240;2023-07-20T02:23:58;11.65;;;5.00;;
80653;SDS011;70020;45.524;10.240;2023-07-20T02:26:23;9.38;;;6.10;;
80653;SDS011;70020;45.524;10.240;2023-07-20T02:28:49;10.30;;;6.05;;
80653;SDS011;70020;45.524;10.240;2023-07-20T02:31:15;10.90;;;5.07;;
80653;SDS011;70020;45.524;10.240;2023-07-20T02:33:40;8.30;;;4.88;;
80653;SDS011;70020;45.524;10.240;2023-07-20T02:36:06;8.82;;;5.10;;
80653;SDS011;70020;45.524;10.240;2023-07-20T02:38:32;11.90;;;6.00;;
80653;SDS011;70020;45.524;10.240;2023-07-20T02:40:58;9.23;;;5.05;;
80653;SDS011;70020;45.524;10.240;2023-07-20T02:43:24;8.18;;;4.72;;
80653;SDS011;70020;45.524;10.240;2023-07-20T02:45:50;10.00;;;4.70;;
80653;SDS011;70020;45.524;10.240;2023-07-20T02:48:16;10.48;;;5.20;;
80653;SDS011;70020;45.524;10.240;2023-07-20T02:50:43;7.18;;;4.28;;
80653;SDS011;70020;45.524;10.240;2023-07-20T02:53:09;7.95;;;4.57;;
80653;SDS011;70020;45.524;10.240;2023-07-20T02:55:34;7.97;;;5.00;;
80653;SDS011;70020;45.524;10.240;2023-07-20T02:58:01;9.85;;;4.80;;
80653;SDS011;70020;45.524;10.240;2023-07-20T03:00:26;9.55;;;4.43;;
80653;SDS011;70020;45.524;10.240;2023-07-20T03:02:52;8.15;;;4.65;;
80653;SDS011;70020;45.524;10.240;2023-07-20T03:05:20;8.18;;;4.88;;
80653;SDS011;70020;45.524;10.240;2023-07-20T03:07:47;7.35;;;4.70;;
80653;SDS011;70020;45.524;10.240;2023-07-20T03:10:14;12.43;;;5.10;;
80653;SDS011;70020;45.524;10.240;2023-07-20T03:12:40;6.55;;;5.03;;
80653;SDS011;70020;45.524;10.240;2023-07-20T03:15:06;8.90;;;5.30;;
80653;SDS011;70020;45.524;10.240;2023-07-20T03:17:32;9.38;;;5.20;;
80653;SDS011;70020;45.524;10.240;2023-07-20T03:19:58;9.70;;;5.30;;
80653;SDS011;70020;45.524;10.240;2023-07-20T03:22:25;8.82;;;5.80;;
80653;SDS011;70020;45.524;10.240;2023-07-20T03:24:51;10.32;;;6.10;;
80653;SDS011;70020;45.524;10.240;2023-07-20T03:27:17;14.05;;;8.43;;
80653;SDS011;70020;45.524;10.240;2023-07-20T03:29:43;11.90;;;7.28;;
80653;SDS011;70020;45.524;10.240;2023-07-20T03:32:09;9.10;;;5.80;;
80653;SDS011;70020;45.524;10.240;2023-07-20T03:34:36;9.25;;;6.15;;
80653;SDS011;70020;45.524;10.240;2023-07-20T03:37:02;11.00;;;6.68;;
80653;SDS011;70020;45.524;10.240;2023-07-20T03:39:29;10.30;;;5.60;;
80653;SDS011;70020;45.524;10.240;2023-07-20T03:41:55;15.48;;;9.68;;
80653;SDS011;70020;45.524;10.240;2023-07-20T03:44:22;10.77;;;7.47;;
80653;SDS011;70020;45.524;10.240;2023-07-20T03:46:48;11.60;;;5.63;;
80653;SDS011;70020;45.524;10.240;2023-07-20T03:49:15;11.20;;;6.05;;
80653;SDS011;70020;45.524;10.240;2023-07-20T03:51:41;8.60;;;6.00;;
80653;SDS011;70020;45.524;10.240;2023-07-20T03:54:08;9.80;;;6.32;;
80653;SDS011;70020;45.524;10.240;2023-07-20T03:56:34;9.15;;;5.70;;
80653;SDS011;70020;45.524;10.240;2023-07-20T03:59:00;11.15;;;6.35;;
80653;SDS011;70020;45.524;10.240;2023-07-20T04:01:26;10.63;;;6.43;;
80653;SDS011;70020;45.524;10.240;2023-07-20T04:03:52;14.00;;;6.93;;
80653;SDS011;70020;45.524;10.240;2023-07-20T04:06:18;10.35;;;6.05;;
80653;SDS011;70020;45.524;10.240;2023-07-20T04:08:44;16.05;;;11.00;;
80653;SDS011;70020;45.524;10.240;2023-07-20T04:11:12;9.40;;;5.60;;
80653;SDS011;70020;45.524;10.240;2023-07-20T04:13:37;10.15;;;5.88;;
80653;SDS011;70020;45.524;10.240;2023-07-20T04:16:03;8.57;;;6.20;;
80653;SDS011;70020;45.524;10.240;2023-07-20T04:18:30;15.38;;;12.05;;
80653;SDS011;70020;45.524;10.240;2023-07-20T04:20:56;16.98;;;10.52;;
80653;SDS011;70020;45.524;10.240;2023-07-20T04:23:22;16.80;;;10.98;;
80653;SDS011;70020;45.524;10.240;2023-07-20T04:25:48;15.05;;;9.50;;
80653;SDS011;70020;45.524;10.240;2023-07-20T04:28:13;16.52;;;11.70;;
80653;SDS011;70020;45.524;10.240;2023-07-20T04:30:39;16.25;;;12.18;;
80653;SDS011;70020;45.524;10.240;2023-07-20T04:33:05;13.82;;;11.38;;
80653;SDS011;70020;45.524;10.240;2023-07-20T04:38:20;15.25;;;11.27;;
80653;SDS011;70020;45.524;10.240;2023-07-20T04:40:47;13.98;;;11.05;;
80653;SDS011;70020;45.524;10.240;2023-07-20T04:43:14;18.25;;;12.00;;
80653;SDS011;70020;45.524;10.240;2023-07-20T04:45:40;16.55;;;11.95;;
80653;SDS011;70020;45.524;10.240;2023-07-20T04:48:08;17.13;;;11.80;;
80653;SDS011;70020;45.524;10.240;2023-07-20T04:50:43;17.88;;;12.00;;
80653;SDS011;70020;45.524;10.240;2023-07-20T04:53:10;19.65;;;12.73;;
80653;SDS011;70020;45.524;10.240;2023-07-20T04:55:39;20.05;;;12.70;;
80653;SDS011;70020;45.524;10.240;2023-07-20T04:58:06;18.27;;;12.15;;
80653;SDS011;70020;45.524;10.240;2023-07-20T05:00:32;20.20;;;13.15;;
80653;SDS011;70020;45.524;10.240;2023-07-20T05:03:00;14.88;;;10.85;;
80653;SDS011;70020;45.524;10.240;2023-07-20T05:05:26;15.35;;;10.18;;
80653;SDS011;70020;45.524;10.240;2023-07-20T05:07:51;16.23;;;10.35;;
80653;SDS011;70020;45.524;10.240;2023-07-20T05:10:17;16.50;;;10.57;;
80653;SDS011;70020;45.524;10.240;2023-07-20T05:12:43;17.55;;;12.77;;
80653;SDS011;70020;45.524;10.240;2023-07-20T05:15:09;17.92;;;13.25;;
80653;SDS011;70020;45.524;10.240;2023-07-20T05:17:35;16.05;;;11.57;;
80653;SDS011;70020;45.524;10.240;2023-07-20T05:20:00;16.98;;;11.25;;
80653;SDS011;70020;45.524;10.240;2023-07-20T05:22:26;19.10;;;12.25;;
80653;SDS011;70020;45.524;10.240;2023-07-20T05:24:52;17.50;;;10.85;;
80653;SDS011;70020;45.524;10.240;2023-07-20T05:27:18;15.15;;;11.13;;
80653;SDS011;70020;45.524;10.240;2023-07-20T05:29:46;14.18;;;10.50;;
80653;SDS011;70020;45.524;10.240;2023-07-20T05:32:12;20.80;;;13.27;;
80653;SDS011;70020;45.524;10.240;2023-07-20T05:34:39;20.20;;;13.13;;
80653;SDS011;70020;45.524;10.240;2023-07-20T05:37:05;17.42;;;11.82;;
80653;SDS011;70020;45.524;10.240;2023-07-20T05:39:34;16.13;;;12.10;;
80653;SDS011;70020;45.524;10.240;2023-07-20T05:41:59;17.40;;;12.50;;
80653;SDS011;70020;45.524;10.240;2023-07-20T05:44:25;17.35;;;11.82;;
80653;SDS011;70020;45.524;10.240;2023-07-20T05:46:50;20.48;;;12.63;;
80653;SDS011;70020;45.524;10.240;2023-07-20T05:49:16;20.02;;;12.75;;
80653;SDS011;70020;45.524;10.240;2023-07-20T05:51:41;20.33;;;12.60;;
80653;SDS011;70020;45.524;10.240;2023-07-20T05:54:08;20.63;;;13.13;;
80653;SDS011;70020;45.524;10.240;2023-07-20T05:56:34;17.83;;;12.23;;
80653;SDS011;70020;45.524;10.240;2023-07-20T05:59:00;20.58;;;11.68;;
80653;SDS011;70020;45.524;10.240;2023-07-20T06:01:26;19.70;;;12.93;;
80653;SDS011;70020;45.524;10.240;2023-07-20T06:03:53;20.63;;;12.95;;
80653;SDS011;70020;45.524;10.240;2023-07-20T06:06:23;20.25;;;13.52;;
80653;SDS011;70020;45.524;10.240;2023-07-20T06:08:48;20.50;;;13.27;;
80653;SDS011;70020;45.524;10.240;2023-07-20T06:11:14;18.83;;;11.55;;
80653;SDS011;70020;45.524;10.240;2023-07-20T06:13:39;19.40;;;12.95;;
80653;SDS011;70020;45.524;10.240;2023-07-20T06:16:08;19.55;;;11.35;;
80653;SDS011;70020;45.524;10.240;2023-07-20T06:18:34;17.65;;;11.10;;
80653;SDS011;70020;45.524;10.240;2023-07-20T06:20:59;18.60;;;10.75;;
80653;SDS011;70020;45.524;10.240;2023-07-20T06:23:25;16.52;;;9.73;;
80653;SDS011;70020;45.524;10.240;2023-07-20T06:25:52;18.02;;;10.55;;
80653;SDS011;70020;45.524;10.240;2023-07-20T06:28:18;18.45;;;9.57;;
80653;SDS011;70020;45.524;10.240;2023-07-20T06:30:44;18.42;;;9.20;;
80653;SDS011;70020;45.524;10.240;2023-07-20T06:33:10;15.95;;;9.95;;
80653;SDS011;70020;45.524;10.240;2023-07-20T06:35:36;19.27;;;10.73;;
80653;SDS011;70020;45.524;10.240;2023-07-20T06:38:02;17.90;;;11.13;;
80653;SDS011;70020;45.524;10.240;2023-07-20T06:40:29;20.25;;;13.02;;
80653;SDS011;70020;45.524;10.240;2023-07-20T06:42:57;21.40;;;13.38;;
80653;SDS011;70020;45.524;10.240;2023-07-20T06:45:23;17.63;;;12.13;;
80653;SDS011;70020;45.524;10.240;2023-07-20T06:47:49;22.00;;;14.93;;
80653;SDS011;70020;45.524;10.240;2023-07-20T06:50:14;20.88;;;15.00;;
80653;SDS011;70020;45.524;10.240;2023-07-20T06:52:40;18.35;;;14.15;;
80653;SDS011;70020;45.524;10.240;2023-07-20T06:55:06;17.63;;;12.93;;
80653;SDS011;70020;45.524;10.240;2023-07-20T06:57:32;22.60;;;13.57;;
80653;SDS011;70020;45.524;10.240;2023-07-20T06:59:58;19.38;;;14.55;;
80653;SDS011;70020;45.524;10.240;2023-07-20T07:02:23;20.40;;;14.35;;
80653;SDS011;70020;45.524;10.240;2023-07-20T07:04:49;21.60;;;13.32;;
80653;SDS011;70020;45.524;10.240;2023-07-20T07:07:17;23.05;;;14.18;;
80653;SDS011;70020;45.524;10.240;2023-07-20T07:09:43;19.58;;;13.68;;
80653;SDS011;70020;45.524;10.240;2023-07-20T07:12:09;23.17;;;13.95;;
80653;SDS011;70020;45.524;10.240;2023-07-20T07:14:34;18.83;;;12.77;;
80653;SDS011;70020;45.524;10.240;2023-07-20T07:17:06;23.08;;;14.80;;
80653;SDS011;70020;45.524;10.240;2023-07-20T07:19:32;23.25;;;13.90;;
80653;SDS011;70020;45.524;10.240;2023-07-20T07:21:58;26.77;;;14.88;;
80653;SDS011;70020;45.524;10.240;2023-07-20T07:24:23;22.15;;;14.75;;
80653;SDS011;70020;45.524;10.240;2023-07-20T07:26:49;21.80;;;14.18;;
80653;SDS011;70020;45.524;10.240;2023-07-20T07:29:15;22.13;;;15.25;;
80653;SDS011;70020;45.524;10.240;2023-07-20T07:31:40;25.42;;;16.42;;
80653;SDS011;70020;45.524;10.240;2023-07-20T07:34:05;21.77;;;15.82;;
80653;SDS011;70020;45.524;10.240;2023-07-20T07:36:31;21.55;;;13.68;;
80653;SDS011;70020;45.524;10.240;2023-07-20T07:38:57;27.05;;;17.00;;
80653;SDS011;70020;45.524;10.240;2023-07-20T07:41:23;21.80;;;15.40;;
80653;SDS011;70020;45.524;10.240;2023-07-20T07:43:48;21.60;;;14.27;;
80653;SDS011;70020;45.524;10.240;2023-07-20T07:46:14;18.63;;;14.60;;
80653;SDS011;70020;45.524;10.240;2023-07-20T07:48:40;22.65;;;15.60;;
80653;SDS011;70020;45.524;10.240;2023-07-20T07:51:07;23.23;;;15.10;;
80653;SDS011;70020;45.524;10.240;2023-07-20T07:53:32;25.58;;;14.73;;
80653;SDS011;70020;45.524;10.240;2023-07-20T07:56:01;25.77;;;15.85;;
80653;SDS011;70020;45.524;10.240;2023-07-20T07:58:28;17.60;;;14.30;;
80653;SDS011;70020;45.524;10.240;2023-07-20T08:00:54;23.88;;;14.90;;
80653;SDS011;70020;45.524;10.240;2023-07-20T08:03:20;23.95;;;14.55;;
80653;SDS011;70020;45.524;10.240;2023-07-20T08:05:46;22.17;;;14.30;;
80653;SDS011;70020;45.524;10.240;2023-07-20T08:08:13;24.48;;;14.65;;
80653;SDS011;70020;45.524;10.240;2023-07-20T08:10:38;23.20;;;16.23;;
80653;SDS011;70020;45.524;10.240;2023-07-20T08:13:04;25.00;;;15.80;;
80653;SDS011;70020;45.524;10.240;2023-07-20T08:15:30;26.08;;;17.42;;
80653;SDS011;70020;45.524;10.240;2023-07-20T08:17:58;23.58;;;16.83;;
80653;SDS011;70020;45.524;10.240;2023-07-20T08:20:24;25.00;;;15.98;;
80653;SDS011;70020;45.524;10.240;2023-07-20T08:22:52;28.02;;;16.95;;
80653;SDS011;70020;45.524;10.240;2023-07-20T08:25:19;27.85;;;16.73;;
80653;SDS011;70020;45.524;10.240;2023-07-20T08:27:44;22.85;;;13.80;;
80653;SDS011;70020;45.524;10.240;2023-07-20T08:30:12;26.20;;;17.00;;
80653;SDS011;70020;45.524;10.240;2023-07-20T08:32:38;21.10;;;13.13;;
80653;SDS011;70020;45.524;10.240;2023-07-20T08:35:03;25.20;;;14.40;;
80653;SDS011;70020;45.524;10.240;2023-07-20T08:37:31;23.90;;;14.45;;
80653;SDS011;70020;45.524;10.240;2023-07-20T08:39:57;21.02;;;14.57;;
80653;SDS011;70020;45.524;10.240;2023-07-20T08:42:23;17.98;;;11.70;;
80653;SDS011;70020;45.524;10.240;2023-07-20T08:44:49;18.08;;;11.52;;
80653;SDS011;70020;45.524;10.240;2023-07-20T08:47:18;23.38;;;11.77;;
80653;SDS011;70020;45.524;10.240;2023-07-20T08:49:48;20.38;;;11.23;;
80653;SDS011;70020;45.524;10.240;2023-07-20T08:52:14;20.50;;;10.40;;
80653;SDS011;70020;45.524;10.240;2023-07-20T08:54:40;15.48;;;9.50;;
80653;SDS011;70020;45.524;10.240;2023-07-20T08:57:06;15.70;;;9.02;;
80653;SDS011;70020;45.524;10.240;2023-07-20T08:59:33;15.80;;;8.52;;
80653;SDS011;70020;45.524;10.240;2023-07-20T09:02:02;24.50;;;10.60;;
80653;SDS011;70020;45.524;10.240;2023-07-20T09:04:30;14.07;;;8.18;;
80653;SDS011;70020;45.524;10.240;2023-07-20T09:06:55;13.77;;;8.43;;
80653;SDS011;70020;45.524;10.240;2023-07-20T09:09:22;14.88;;;7.63;;
80653;SDS011;70020;45.524;10.240;2023-07-20T09:11:48;16.30;;;8.57;;
80653;SDS011;70020;45.524;10.240;2023-07-20T09:14:14;15.75;;;9.45;;
80653;SDS011;70020;45.524;10.240;2023-07-20T09:16:47;17.20;;;8.95;;
80653;SDS011;70020;45.524;10.240;2023-07-20T09:19:17;17.33;;;7.93;;
80653;SDS011;70020;45.524;10.240;2023-07-20T09:21:44;12.05;;;7.70;;
80653;SDS011;70020;45.524;10.240;2023-07-20T09:24:11;19.42;;;8.95;;
80653;SDS011;70020;45.524;10.240;2023-07-20T09:26:41;13.82;;;7.97;;
80653;SDS011;70020;45.524;10.240;2023-07-20T09:29:10;13.30;;;8.40;;
80653;SDS011;70020;45.524;10.240;2023-07-20T09:31:36;15.43;;;9.07;;
80653;SDS011;70020;45.524;10.240;2023-07-20T09:34:03;20.95;;;10.35;;
80653;SDS011;70020;45.524;10.240;2023-07-20T09:36:33;16.67;;;8.98;;
80653;SDS011;70020;45.524;10.240;2023-07-20T09:39:00;17.13;;;8.85;;
80653;SDS011;70020;45.524;10.240;2023-07-20T09:41:27;15.23;;;9.27;;
80653;SDS011;70020;45.524;10.240;2023-07-20T09:43:53;12.18;;;8.43;;
80653;SDS011;70020;45.524;10.240;2023-07-20T09:46:19;20.30;;;9.13;;
80653;SDS011;70020;45.524;10.240;2023-07-20T09:48:51;14.60;;;8.68;;
80653;SDS011;70020;45.524;10.240;2023-07-20T09:51:19;18.23;;;9.32;;
80653;SDS011;70020;45.524;10.240;2023-07-20T09:53:50;17.60;;;8.93;;
80653;SDS011;70020;45.524;10.240;2023-07-20T09:56:19;16.67;;;9.77;;
80653;SDS011;70020;45.524;10.240;2023-07-20T09:58:46;22.67;;;10.88;;
80653;SDS011;70020;45.524;10.240;2023-07-20T10:01:13;17.95;;;9.85;;
80653;SDS011;70020;45.524;10.240;2023-07-20T10:03:46;19.23;;;9.32;;
80653;SDS011;70020;45.524;10.240;2023-07-20T10:06:13;15.45;;;9.00;;
80653;SDS011;70020;45.524;10.240;2023-07-20T10:08:43;18.17;;;13.25;;
80653;SDS011;70020;45.524;10.240;2023-07-20T10:11:14;15.85;;;9.93;;
80653;SDS011;70020;45.524;10.240;2023-07-20T10:13:41;16.05;;;9.15;;
80653;SDS011;70020;45.524;10.240;2023-07-20T10:16:12;13.45;;;10.32;;
80653;SDS011;70020;45.524;10.240;2023-07-20T10:18:46;18.13;;;8.57;;
80653;SDS011;70020;45.524;10.240;2023-07-20T10:21:17;18.52;;;9.27;;
80653;SDS011;70020;45.524;10.240;2023-07-20T10:23:44;14.40;;;9.70;;
80653;SDS011;70020;45.524;10.240;2023-07-20T10:26:10;16.73;;;10.15;;
80653;SDS011;70020;45.524;10.240;2023-07-20T10:28:37;14.65;;;10.63;;
80653;SDS011;70020;45.524;10.240;2023-07-20T10:31:04;16.15;;;10.57;;
80653;SDS011;70020;45.524;10.240;2023-07-20T10:33:30;15.75;;;8.80;;
80653;SDS011;70020;45.524;10.240;2023-07-20T10:35:57;15.15;;;9.10;;
80653;SDS011;70020;45.524;10.240;2023-07-20T10:38:42;17.88;;;9.43;;
80653;SDS011;70020;45.524;10.240;2023-07-20T10:44:02;12.73;;;8.57;;
80653;SDS011;70020;45.524;10.240;2023-07-20T10:49:08;22.45;;;9.40;;
80653;SDS011;70020;45.524;10.240;2023-07-20T10:51:38;16.80;;;9.88;;
80653;SDS011;70020;45.524;10.240;2023-07-20T10:54:11;22.02;;;9.90;;
80653;SDS011;70020;45.524;10.240;2023-07-20T10:56:58;17.23;;;8.88;;
80653;SDS011;70020;45.524;10.240;2023-07-20T10:59:49;17.77;;;9.02;;
80653;SDS011;70020;45.524;10.240;2023-07-20T11:02:17;16.50;;;8.90;;
80653;SDS011;70020;45.524;10.240;2023-07-20T11:04:45;16.30;;;8.32;;
80653;SDS011;70020;45.524;10.240;2023-07-20T11:07:23;13.75;;;8.77;;
80653;SDS011;70020;45.524;10.240;2023-07-20T11:10:14;17.45;;;8.93;;
80653;SDS011;70020;45.524;10.240;2023-07-20T11:12:40;21.13;;;9.55;;
80653;SDS011;70020;45.524;10.240;2023-07-20T11:15:06;15.23;;;8.48;;
80653;SDS011;70020;45.524;10.240;2023-07-20T11:17:33;14.57;;;8.88;;
80653;SDS011;70020;45.524;10.240;2023-07-20T11:19:59;14.02;;;8.48;;
80653;SDS011;70020;45.524;10.240;2023-07-20T11:22:27;10.98;;;7.38;;
80653;SDS011;70020;45.524;10.240;2023-07-20T11:24:56;14.75;;;8.32;;
80653;SDS011;70020;45.524;10.240;2023-07-20T11:27:23;17.35;;;8.77;;
80653;SDS011;70020;45.524;10.240;2023-07-20T11:29:49;16.13;;;10.27;;
80653;SDS011;70020;45.524;10.240;2023-07-20T11:32:22;16.10;;;9.07;;
80653;SDS011;70020;45.524;10.240;2023-07-20T11:34:49;15.77;;;8.32;;
80653;SDS011;70020;45.524;10.240;2023-07-20T11:37:15;16.95;;;8.65;;
80653;SDS011;70020;45.524;10.240;2023-07-20T11:39:41;16.95;;;7.53;;
80653;SDS011;70020;45.524;10.240;2023-07-20T11:42:07;16.40;;;8.48;;
80653;SDS011;70020;45.524;10.240;2023-07-20T11:44:33;14.93;;;7.78;;
80653;SDS011;70020;45.524;10.240;2023-07-20T11:46:59;16.20;;;9.73;;
80653;SDS011;70020;45.524;10.240;2023-07-20T11:49:28;13.93;;;8.38;;
80653;SDS011;70020;45.524;10.240;2023-07-20T11:51:54;13.40;;;7.78;;
80653;SDS011;70020;45.524;10.240;2023-07-20T11:54:21;15.75;;;8.25;;
80653;SDS011;70020;45.524;10.240;2023-07-20T11:56:47;13.07;;;7.95;;
80653;SDS011;70020;45.524;10.240;2023-07-20T11:59:13;14.23;;;7.15;;
80653;SDS011;70020;45.524;10.240;2023-07-20T12:01:39;14.15;;;7.40;;
80653;SDS011;70020;45.524;10.240;2023-07-20T12:04:06;10.55;;;7.03;;
80653;SDS011;70020;45.524;10.240;2023-07-20T12:06:32;10.32;;;6.75;;
80653;SDS011;70020;45.524;10.240;2023-07-20T12:08:58;14.85;;;7.18;;
80653;SDS011;70020;45.524;10.240;2023-07-20T12:11:33;12.82;;;6.70;;
80653;SDS011;70020;45.524;10.240;2023-07-20T12:14:04;12.18;;;6.35;;
80653;SDS011;70020;45.524;10.240;2023-07-20T12:16:32;9.60;;;6.70;;
80653;SDS011;70020;45.524;10.240;2023-07-20T12:19:06;10.43;;;6.35;;
80653;SDS011;70020;45.524;10.240;2023-07-20T12:21:36;12.30;;;6.47;;
80653;SDS011;70020;45.524;10.240;2023-07-20T12:24:03;13.68;;;6.50;;
80653;SDS011;70020;45.524;10.240;2023-07-20T12:26:29;13.02;;;6.78;;
80653;SDS011;70020;45.524;10.240;2023-07-20T12:28:56;12.95;;;6.18;;
80653;SDS011;70020;45.524;10.240;2023-07-20T12:31:23;10.40;;;6.05;;
80653;SDS011;70020;45.524;10.240;2023-07-20T12:33:52;9.82;;;5.78;;
80653;SDS011;70020;45.524;10.240;2023-07-20T12:36:20;11.95;;;6.15;;
80653;SDS011;70020;45.524;10.240;2023-07-20T12:38:46;10.82;;;5.63;;
80653;SDS011;70020;45.524;10.240;2023-07-20T12:41:12;10.10;;;5.70;;
80653;SDS011;70020;45.524;10.240;2023-07-20T12:43:39;9.18;;;5.15;;
80653;SDS011;70020;45.524;10.240;2023-07-20T12:46:08;9.43;;;5.10;;
80653;SDS011;70020;45.524;10.240;2023-07-20T12:48:35;11.15;;;5.80;;
80653;SDS011;70020;45.524;10.240;2023-07-20T12:51:02;12.13;;;5.80;;
80653;SDS011;70020;45.524;10.240;2023-07-20T12:53:28;11.27;;;5.05;;
80653;SDS011;70020;45.524;10.240;2023-07-20T12:55:54;10.48;;;5.07;;
80653;SDS011;70020;45.524;10.240;2023-07-20T12:58:20;9.82;;;4.82;;
80653;SDS011;70020;45.524;10.240;2023-07-20T13:00:46;11.15;;;4.55;;
80653;SDS011;70020;45.524;10.240;2023-07-20T13:03:11;7.55;;;4.80;;
80653;SDS011;70020;45.524;10.240;2023-07-20T13:05:37;7.95;;;4.88;;
80653;SDS011;70020;45.524;10.240;2023-07-20T13:08:04;9.82;;;4.78;;
80653;SDS011;70020;45.524;10.240;2023-07-20T13:10:30;8.75;;;4.47;;
80653;SDS011;70020;45.524;10.240;2023-07-20T13:12:56;8.90;;;4.65;;
80653;SDS011;70020;45.524;10.240;2023-07-20T13:15:24;9.05;;;4.18;;
80653;SDS011;70020;45.524;10.240;2023-07-20T13:17:57;8.57;;;4.00;;
80653;SDS011;70020;45.524;10.240;2023-07-20T13:20:24;8.73;;;4.70;;
80653;SDS011;70020;45.524;10.240;2023-07-20T13:22:50;8.18;;;3.90;;
80653;SDS011;70020;45.524;10.240;2023-07-20T13:25:16;9.52;;;4.18;;
80653;SDS011;70020;45.524;10.240;2023-07-20T13:27:42;6.68;;;3.97;;
80653;SDS011;70020;45.524;10.240;2023-07-20T13:30:08;10.10;;;4.53;;
80653;SDS011;70020;45.524;10.240;2023-07-20T13:32:36;8.90;;;4.72;;
80653;SDS011;70020;45.524;10.240;2023-07-20T13:35:02;9.15;;;4.22;;
80653;SDS011;70020;45.524;10.240;2023-07-20T13:37:28;14.80;;;4.22;;
80653;SDS011;70020;45.524;10.240;2023-07-20T13:39:54;5.95;;;3.90;;
80653;SDS011;70020;45.524;10.240;2023-07-20T13:42:20;7.25;;;3.88;;
80653;SDS011;70020;45.524;10.240;2023-07-20T13:44:46;8.15;;;4.20;;
80653;SDS011;70020;45.524;10.240;2023-07-20T13:47:13;9.48;;;3.80;;
80653;SDS011;70020;45.524;10.240;2023-07-20T13:49:39;10.40;;;3.58;;
80653;SDS011;70020;45.524;10.240;2023-07-20T13:52:06;7.30;;;4.13;;
80653;SDS011;70020;45.524;10.240;2023-07-20T13:54:31;6.95;;;4.60;;
80653;SDS011;70020;45.524;10.240;2023-07-20T13:56:57;9.48;;;4.18;;
80653;SDS011;70020;45.524;10.240;2023-07-20T13:59:23;10.77;;;4.35;;
80653;SDS011;70020;45.524;10.240;2023-07-20T14:01:49;7.40;;;3.88;;
80653;SDS011;70020;45.524;10.240;2023-07-20T14:04:15;7.82;;;4.13;;
80653;SDS011;70020;45.524;10.240;2023-07-20T14:06:41;8.02;;;4.22;;
80653;SDS011;70020;45.524;10.240;2023-07-20T14:09:09;5.55;;;3.78;;
80653;SDS011;70020;45.524;10.240;2023-07-20T14:11:35;8.55;;;4.30;;
80653;SDS011;70020;45.524;10.240;2023-07-20T14:14:00;7.32;;;4.05;;
80653;SDS011;70020;45.524;10.240;2023-07-20T14:16:26;7.53;;;3.63;;
80653;SDS011;70020;45.524;10.240;2023-07-20T14:18:52;8.02;;;4.50;;
80653;SDS011;70020;45.524;10.240;2023-07-20T14:21:18;8.63;;;4.05;;
80653;SDS011;70020;45.524;10.240;2023-07-20T14:23:45;8.57;;;4.55;;
80653;SDS011;70020;45.524;10.240;2023-07-20T14:26:12;6.40;;;4.10;;
80653;SDS011;70020;45.524;10.240;2023-07-20T14:28:37;7.97;;;4.93;;
80653;SDS011;70020;45.524;10.240;2023-07-20T14:31:03;12.23;;;4.45;;
80653;SDS011;70020;45.524;10.240;2023-07-20T14:33:29;6.13;;;4.30;;
80653;SDS011;70020;45.524;10.240;2023-07-20T14:35:55;6.72;;;4.07;;
80653;SDS011;70020;45.524;10.240;2023-07-20T14:38:21;9.05;;;4.72;;
80653;SDS011;70020;45.524;10.240;2023-07-20T14:40:46;6.63;;;4.50;;
80653;SDS011;70020;45.524;10.240;2023-07-20T14:43:12;6.50;;;4.60;;